Chrysanthemum — C6XO4 — position and weather

sailwx.info

Track history (hours):
 
Tides and Currents Weather Stations Pressure Air Temp Water Temp Dewpoint Dewpoint Depression Visibility Wind Speed Wind Dir Waves Ship Positions

Chrysanthemum

Last reported at 2016-Dec-07 23:16 UTC. Time now 2016-Dec-09 05:53 UTC.
Position N 39°24' W 009°57'.

Length 244 m; draft 14.1 m.

Type: Ship. MMSI: 311015300.

Date/timePositionNaut miles runAvg speedWind from/ knotsBaromVisibWave heightAir tempDewpointWater temp
2016-Dec-07 23:16N 39°24' W 009°57'912.0
2016-Dec-07 22:33N 39°15' W 009°57'1212.2
2016-Dec-07 21:33N 39°03' W 009°57'1212.0
2016-Dec-07 20:33N 38°51' W 009°57'1212.0
2016-Dec-07 19:33N 38°39' W 009°56'1212.0
2016-Dec-07 18:33N 38°28' W 009°53'1211.9
2016-Dec-07 17:32N 38°16' W 009°49'1211.8
2016-Dec-07 16:33N 38°04' W 009°46'1211.9
2016-Dec-07 15:34N 37°53' W 009°43'1312.2
2016-Dec-07 14:29N 37°40' W 009°39'22310.6
2016-Dec-06 17:30N 36°00' W 005°29'9 0.9
2016-Dec-06 07:08N 36°08' W 005°23'2 3.9
2016-Dec-06 06:33N 36°06' W 005°21'8 7.7
2016-Dec-06 05:33N 36°06' W 005°12'1 0.6
2016-Dec-06 04:33N 36°06' W 005°12'0 0.0
2016-Dec-05 23:26N 36°05' W 005°12'0 0.2
2016-Dec-05 21:28N 36°06' W 005°12'0 0.2
2016-Dec-05 20:24N 36°06' W 005°12'0 0.0
2016-Dec-05 15:30N 36°06' W 005°12'1 0.6
2016-Dec-05 14:09N 36°07' W 005°12'0 0.4
2016-Dec-05 13:34N 36°07' W 005°11'19 4.7
2016-Dec-05 09:33N 36°06' W 004°48'1212.1
2016-Dec-05 08:33N 36°08' W 004°33'1212.1
2016-Dec-05 07:33N 36°08' W 004°18'  
2016-Dec-02 06:18N 36°41' E 013°32'912.2
2016-Dec-02 05:33N 36°38' E 013°43'1312.1
2016-Dec-02 04:29N 36°34' E 013°58'1112.0
2016-Dec-02 03:33N 36°30' E 014°11'1212.0
2016-Dec-02 02:33N 36°26' E 014°25'1211.9
2016-Dec-02 01:33N 36°22' E 014°40'1212.1
2016-Dec-02 00:32N 36°19' E 014°54'  
Track history (hours):
 
Tides and Currents Weather Stations Pressure Air Temp Water Temp Dewpoint Dewpoint Depression Visibility Wind Speed Wind Dir Waves Ship Positions

Chrysanthemum

Last reported at 2016-Dec-07 23:16 UTC. Time now 2016-Dec-09 05:53 UTC.
Position N 39°24' W 009°57'.

Length 244 m; draft 14.1 m.

Type: Ship. MMSI: 311015300.

Date/timePositionNaut miles runAvg speedWind from/ knotsBaromVisibWave heightAir tempDewpointWater temp
2016-Dec-07 23:16N 39°24' W 009°57'912.0
2016-Dec-07 22:33N 39°15' W 009°57'1212.2
2016-Dec-07 21:33N 39°03' W 009°57'1212.0
2016-Dec-07 20:33N 38°51' W 009°57'1212.0
2016-Dec-07 19:33N 38°39' W 009°56'1212.0
2016-Dec-07 18:33N 38°28' W 009°53'1211.9
2016-Dec-07 17:32N 38°16' W 009°49'1211.8
2016-Dec-07 16:33N 38°04' W 009°46'1211.9
2016-Dec-07 15:34N 37°53' W 009°43'1312.2
2016-Dec-07 14:29N 37°40' W 009°39'22310.6
2016-Dec-06 17:30N 36°00' W 005°29'9 0.9
2016-Dec-06 07:08N 36°08' W 005°23'2 3.9
2016-Dec-06 06:33N 36°06' W 005°21'8 7.7
2016-Dec-06 05:33N 36°06' W 005°12'1 0.6
2016-Dec-06 04:33N 36°06' W 005°12'0 0.0
2016-Dec-05 23:26N 36°05' W 005°12'0 0.2
2016-Dec-05 21:28N 36°06' W 005°12'0 0.2
2016-Dec-05 20:24N 36°06' W 005°12'0 0.0
2016-Dec-05 15:30N 36°06' W 005°12'1 0.6
2016-Dec-05 14:09N 36°07' W 005°12'0 0.4
2016-Dec-05 13:34N 36°07' W 005°11'19 4.7
2016-Dec-05 09:33N 36°06' W 004°48'1212.1
2016-Dec-05 08:33N 36°08' W 004°33'1212.1
2016-Dec-05 07:33N 36°08' W 004°18'  
2016-Dec-02 06:18N 36°41' E 013°32'912.2
2016-Dec-02 05:33N 36°38' E 013°43'1312.1
2016-Dec-02 04:29N 36°34' E 013°58'1112.0
2016-Dec-02 03:33N 36°30' E 014°11'1212.0
2016-Dec-02 02:33N 36°26' E 014°25'1211.9
2016-Dec-02 01:33N 36°22' E 014°40'1212.1
2016-Dec-02 00:32N 36°19' E 014°54'  

Dump ship's entire track history